sensor_id;sensor_type;location;lat;lon;timestamp;P1;durP1;ratioP1;P2;durP2;ratioP2
43857;SDS011;29507;51.284;5.758;2022-12-20T00:01:41;2.65;;;0.80;;
43857;SDS011;29507;51.284;5.758;2022-12-20T00:04:06;4.20;;;1.25;;
43857;SDS011;29507;51.284;5.758;2022-12-20T00:06:34;2.20;;;0.95;;
43857;SDS011;29507;51.284;5.758;2022-12-20T00:09:02;4.07;;;1.05;;
43857;SDS011;29507;51.284;5.758;2022-12-20T00:11:31;2.03;;;1.02;;
43857;SDS011;29507;51.284;5.758;2022-12-20T00:13:57;3.17;;;1.00;;
43857;SDS011;29507;51.284;5.758;2022-12-20T00:16:24;2.13;;;1.02;;
43857;SDS011;29507;51.284;5.758;2022-12-20T00:18:52;1.80;;;0.93;;
43857;SDS011;29507;51.284;5.758;2022-12-20T00:21:20;3.43;;;1.00;;
43857;SDS011;29507;51.284;5.758;2022-12-20T00:23:45;1.95;;;0.95;;
43857;SDS011;29507;51.284;5.758;2022-12-20T00:26:12;3.17;;;1.27;;
43857;SDS011;29507;51.284;5.758;2022-12-20T00:28:42;2.88;;;1.00;;
43857;SDS011;29507;51.284;5.758;2022-12-20T00:31:09;4.95;;;1.25;;
43857;SDS011;29507;51.284;5.758;2022-12-20T00:33:37;4.38;;;1.38;;
43857;SDS011;29507;51.284;5.758;2022-12-20T00:36:04;2.20;;;0.90;;
43857;SDS011;29507;51.284;5.758;2022-12-20T00:38:31;2.95;;;0.82;;
43857;SDS011;29507;51.284;5.758;2022-12-20T00:43:33;2.47;;;1.02;;
43857;SDS011;29507;51.284;5.758;2022-12-20T00:45:59;5.03;;;0.98;;
43857;SDS011;29507;51.284;5.758;2022-12-20T00:48:26;2.97;;;1.15;;
43857;SDS011;29507;51.284;5.758;2022-12-20T00:50:56;3.60;;;0.80;;
43857;SDS011;29507;51.284;5.758;2022-12-20T00:53:29;1.85;;;0.95;;
43857;SDS011;29507;51.284;5.758;2022-12-20T00:55:56;2.28;;;0.90;;
43857;SDS011;29507;51.284;5.758;2022-12-20T00:58:22;3.17;;;1.10;;
43857;SDS011;29507;51.284;5.758;2022-12-20T01:00:48;4.10;;;1.08;;
43857;SDS011;29507;51.284;5.758;2022-12-20T01:03:13;2.72;;;1.05;;
43857;SDS011;29507;51.284;5.758;2022-12-20T01:05:39;2.47;;;0.82;;
43857;SDS011;29507;51.284;5.758;2022-12-20T01:08:13;2.60;;;1.20;;
43857;SDS011;29507;51.284;5.758;2022-12-20T01:10:39;2.53;;;1.15;;
43857;SDS011;29507;51.284;5.758;2022-12-20T01:13:04;2.20;;;1.02;;
43857;SDS011;29507;51.284;5.758;2022-12-20T01:15:30;4.22;;;1.13;;
43857;SDS011;29507;51.284;5.758;2022-12-20T01:17:56;2.67;;;1.08;;
43857;SDS011;29507;51.284;5.758;2022-12-20T01:20:21;2.60;;;1.02;;
43857;SDS011;29507;51.284;5.758;2022-12-20T01:22:47;2.92;;;1.10;;
43857;SDS011;29507;51.284;5.758;2022-12-20T01:25:13;1.75;;;0.73;;
43857;SDS011;29507;51.284;5.758;2022-12-20T01:27:38;2.55;;;0.90;;
43857;SDS011;29507;51.284;5.758;2022-12-20T01:30:04;2.88;;;0.93;;
43857;SDS011;29507;51.284;5.758;2022-12-20T01:32:30;3.30;;;1.20;;
43857;SDS011;29507;51.284;5.758;2022-12-20T01:34:55;3.17;;;0.82;;
43857;SDS011;29507;51.284;5.758;2022-12-20T01:37:21;3.22;;;0.95;;
43857;SDS011;29507;51.284;5.758;2022-12-20T01:39:47;2.30;;;0.90;;
43857;SDS011;29507;51.284;5.758;2022-12-20T01:42:13;3.47;;;1.08;;
43857;SDS011;29507;51.284;5.758;2022-12-20T01:47:08;7.82;;;1.50;;
43857;SDS011;29507;51.284;5.758;2022-12-20T01:49:41;3.20;;;1.10;;
43857;SDS011;29507;51.284;5.758;2022-12-20T01:55:01;4.03;;;1.13;;
43857;SDS011;29507;51.284;5.758;2022-12-20T01:57:36;2.80;;;1.20;;
43857;SDS011;29507;51.284;5.758;2022-12-20T02:00:20;2.95;;;1.27;;
43857;SDS011;29507;51.284;5.758;2022-12-20T02:02:46;3.58;;;1.75;;
43857;SDS011;29507;51.284;5.758;2022-12-20T02:05:14;4.72;;;1.77;;
43857;SDS011;29507;51.284;5.758;2022-12-20T02:07:42;3.28;;;1.25;;
43857;SDS011;29507;51.284;5.758;2022-12-20T02:10:12;3.10;;;1.17;;
43857;SDS011;29507;51.284;5.758;2022-12-20T02:12:39;3.15;;;0.88;;
43857;SDS011;29507;51.284;5.758;2022-12-20T02:18:03;4.40;;;1.30;;
43857;SDS011;29507;51.284;5.758;2022-12-20T02:23:52;5.22;;;0.95;;
43857;SDS011;29507;51.284;5.758;2022-12-20T02:29:32;4.45;;;1.10;;
43857;SDS011;29507;51.284;5.758;2022-12-20T02:32:19;3.65;;;1.15;;
43857;SDS011;29507;51.284;5.758;2022-12-20T02:34:48;4.45;;;1.60;;
43857;SDS011;29507;51.284;5.758;2022-12-20T02:37:14;3.63;;;1.45;;
43857;SDS011;29507;51.284;5.758;2022-12-20T02:39:40;2.15;;;0.95;;
43857;SDS011;29507;51.284;5.758;2022-12-20T02:42:08;2.90;;;1.20;;
43857;SDS011;29507;51.284;5.758;2022-12-20T02:44:37;3.63;;;1.10;;
43857;SDS011;29507;51.284;5.758;2022-12-20T02:47:28;3.20;;;1.17;;
43857;SDS011;29507;51.284;5.758;2022-12-20T02:49:57;2.30;;;1.00;;
43857;SDS011;29507;51.284;5.758;2022-12-20T02:52:24;2.97;;;1.30;;
43857;SDS011;29507;51.284;5.758;2022-12-20T02:54:55;4.32;;;1.02;;
43857;SDS011;29507;51.284;5.758;2022-12-20T02:57:26;2.97;;;1.10;;
43857;SDS011;29507;51.284;5.758;2022-12-20T03:00:10;2.63;;;1.08;;
43857;SDS011;29507;51.284;5.758;2022-12-20T03:02:38;5.47;;;1.30;;
43857;SDS011;29507;51.284;5.758;2022-12-20T03:05:25;1.70;;;0.65;;
43857;SDS011;29507;51.284;5.758;2022-12-20T03:07:52;1.77;;;0.77;;
43857;SDS011;29507;51.284;5.758;2022-12-20T03:10:18;4.18;;;1.00;;
43857;SDS011;29507;51.284;5.758;2022-12-20T03:12:45;3.65;;;0.93;;
43857;SDS011;29507;51.284;5.758;2022-12-20T03:15:10;3.85;;;0.95;;
43857;SDS011;29507;51.284;5.758;2022-12-20T03:17:36;2.47;;;1.05;;
43857;SDS011;29507;51.284;5.758;2022-12-20T03:20:03;4.25;;;1.23;;
43857;SDS011;29507;51.284;5.758;2022-12-20T03:22:35;4.82;;;1.15;;
43857;SDS011;29507;51.284;5.758;2022-12-20T03:25:00;5.72;;;1.20;;
43857;SDS011;29507;51.284;5.758;2022-12-20T03:27:26;4.00;;;1.00;;
43857;SDS011;29507;51.284;5.758;2022-12-20T03:29:53;3.72;;;1.23;;
43857;SDS011;29507;51.284;5.758;2022-12-20T03:32:19;4.00;;;1.10;;
43857;SDS011;29507;51.284;5.758;2022-12-20T03:34:45;3.28;;;1.20;;
43857;SDS011;29507;51.284;5.758;2022-12-20T03:37:11;3.30;;;1.40;;
43857;SDS011;29507;51.284;5.758;2022-12-20T03:39:36;3.53;;;1.05;;
43857;SDS011;29507;51.284;5.758;2022-12-20T03:42:02;2.85;;;1.40;;
43857;SDS011;29507;51.284;5.758;2022-12-20T03:44:28;4.00;;;1.10;;
43857;SDS011;29507;51.284;5.758;2022-12-20T03:46:53;4.60;;;1.48;;
43857;SDS011;29507;51.284;5.758;2022-12-20T03:49:19;3.08;;;1.30;;
43857;SDS011;29507;51.284;5.758;2022-12-20T03:51:45;3.13;;;0.90;;
43857;SDS011;29507;51.284;5.758;2022-12-20T03:54:10;3.22;;;1.42;;
43857;SDS011;29507;51.284;5.758;2022-12-20T03:56:36;5.93;;;1.40;;
43857;SDS011;29507;51.284;5.758;2022-12-20T03:59:02;5.03;;;1.50;;
43857;SDS011;29507;51.284;5.758;2022-12-20T04:01:28;3.55;;;1.10;;
43857;SDS011;29507;51.284;5.758;2022-12-20T04:03:54;3.83;;;1.88;;
43857;SDS011;29507;51.284;5.758;2022-12-20T04:06:20;5.30;;;1.70;;
43857;SDS011;29507;51.284;5.758;2022-12-20T04:08:47;5.30;;;1.85;;
43857;SDS011;29507;51.284;5.758;2022-12-20T04:11:13;3.97;;;1.58;;
43857;SDS011;29507;51.284;5.758;2022-12-20T04:13:45;3.95;;;1.65;;
43857;SDS011;29507;51.284;5.758;2022-12-20T04:18:40;2.55;;;1.08;;
43857;SDS011;29507;51.284;5.758;2022-12-20T04:21:06;4.68;;;1.25;;
43857;SDS011;29507;51.284;5.758;2022-12-20T04:23:35;2.88;;;1.10;;
43857;SDS011;29507;51.284;5.758;2022-12-20T04:26:02;2.58;;;1.27;;
43857;SDS011;29507;51.284;5.758;2022-12-20T04:28:29;4.68;;;1.20;;
43857;SDS011;29507;51.284;5.758;2022-12-20T04:30:54;3.75;;;1.45;;
43857;SDS011;29507;51.284;5.758;2022-12-20T04:33:21;2.55;;;1.20;;
43857;SDS011;29507;51.284;5.758;2022-12-20T04:35:47;3.30;;;1.33;;
43857;SDS011;29507;51.284;5.758;2022-12-20T04:38:13;3.10;;;1.20;;
43857;SDS011;29507;51.284;5.758;2022-12-20T04:40:39;2.85;;;1.25;;
43857;SDS011;29507;51.284;5.758;2022-12-20T04:43:04;3.53;;;1.35;;
43857;SDS011;29507;51.284;5.758;2022-12-20T04:45:30;2.90;;;1.70;;
43857;SDS011;29507;51.284;5.758;2022-12-20T04:47:57;3.97;;;1.80;;
43857;SDS011;29507;51.284;5.758;2022-12-20T04:50:22;3.00;;;1.40;;
43857;SDS011;29507;51.284;5.758;2022-12-20T04:52:48;4.60;;;1.73;;
43857;SDS011;29507;51.284;5.758;2022-12-20T04:55:36;4.18;;;1.30;;
43857;SDS011;29507;51.284;5.758;2022-12-20T04:58:04;4.88;;;1.30;;
43857;SDS011;29507;51.284;5.758;2022-12-20T05:00:30;2.30;;;1.08;;
43857;SDS011;29507;51.284;5.758;2022-12-20T05:02:56;3.28;;;1.30;;
43857;SDS011;29507;51.284;5.758;2022-12-20T05:05:22;4.18;;;1.13;;
43857;SDS011;29507;51.284;5.758;2022-12-20T05:07:48;4.93;;;1.50;;
43857;SDS011;29507;51.284;5.758;2022-12-20T05:10:14;3.65;;;1.65;;
43857;SDS011;29507;51.284;5.758;2022-12-20T05:12:39;3.95;;;1.35;;
43857;SDS011;29507;51.284;5.758;2022-12-20T05:15:05;5.82;;;1.35;;
43857;SDS011;29507;51.284;5.758;2022-12-20T05:17:31;3.20;;;1.30;;
43857;SDS011;29507;51.284;5.758;2022-12-20T05:19:57;2.88;;;1.30;;
43857;SDS011;29507;51.284;5.758;2022-12-20T05:22:23;3.35;;;1.23;;
43857;SDS011;29507;51.284;5.758;2022-12-20T05:25:08;1.83;;;0.93;;
43857;SDS011;29507;51.284;5.758;2022-12-20T05:27:54;3.00;;;1.20;;
43857;SDS011;29507;51.284;5.758;2022-12-20T05:30:19;2.78;;;1.42;;
43857;SDS011;29507;51.284;5.758;2022-12-20T05:32:45;3.78;;;1.48;;
43857;SDS011;29507;51.284;5.758;2022-12-20T05:35:11;2.97;;;1.23;;
43857;SDS011;29507;51.284;5.758;2022-12-20T05:37:36;4.10;;;1.48;;
43857;SDS011;29507;51.284;5.758;2022-12-20T05:40:02;3.50;;;1.23;;
43857;SDS011;29507;51.284;5.758;2022-12-20T05:42:29;3.00;;;1.42;;
43857;SDS011;29507;51.284;5.758;2022-12-20T05:44:54;4.38;;;1.55;;
43857;SDS011;29507;51.284;5.758;2022-12-20T05:47:20;3.80;;;1.67;;
43857;SDS011;29507;51.284;5.758;2022-12-20T05:49:46;2.90;;;1.20;;
43857;SDS011;29507;51.284;5.758;2022-12-20T05:52:11;3.22;;;1.48;;
43857;SDS011;29507;51.284;5.758;2022-12-20T05:54:37;3.00;;;1.30;;
43857;SDS011;29507;51.284;5.758;2022-12-20T05:57:03;3.38;;;1.63;;
43857;SDS011;29507;51.284;5.758;2022-12-20T05:59:28;3.72;;;1.52;;
43857;SDS011;29507;51.284;5.758;2022-12-20T06:01:54;2.47;;;1.33;;
43857;SDS011;29507;51.284;5.758;2022-12-20T06:04:20;3.72;;;1.40;;
43857;SDS011;29507;51.284;5.758;2022-12-20T06:06:45;3.13;;;1.13;;
43857;SDS011;29507;51.284;5.758;2022-12-20T06:09:11;1.85;;;1.02;;
43857;SDS011;29507;51.284;5.758;2022-12-20T06:11:36;5.90;;;1.33;;
43857;SDS011;29507;51.284;5.758;2022-12-20T06:14:02;7.57;;;1.60;;
43857;SDS011;29507;51.284;5.758;2022-12-20T06:16:28;3.10;;;1.23;;
43857;SDS011;29507;51.284;5.758;2022-12-20T06:18:54;4.13;;;1.25;;
43857;SDS011;29507;51.284;5.758;2022-12-20T06:21:19;3.90;;;1.10;;
43857;SDS011;29507;51.284;5.758;2022-12-20T06:23:45;6.57;;;1.17;;
43857;SDS011;29507;51.284;5.758;2022-12-20T06:26:11;4.22;;;1.50;;
43857;SDS011;29507;51.284;5.758;2022-12-20T06:28:37;3.17;;;1.08;;
43857;SDS011;29507;51.284;5.758;2022-12-20T06:31:09;3.55;;;1.48;;
43857;SDS011;29507;51.284;5.758;2022-12-20T06:33:35;3.20;;;1.15;;
43857;SDS011;29507;51.284;5.758;2022-12-20T06:36:01;3.10;;;1.08;;
43857;SDS011;29507;51.284;5.758;2022-12-20T06:38:27;2.65;;;1.23;;
43857;SDS011;29507;51.284;5.758;2022-12-20T06:40:53;2.30;;;1.08;;
43857;SDS011;29507;51.284;5.758;2022-12-20T06:43:19;3.13;;;1.27;;
43857;SDS011;29507;51.284;5.758;2022-12-20T06:45:44;4.43;;;1.50;;
43857;SDS011;29507;51.284;5.758;2022-12-20T06:48:10;4.28;;;0.90;;
43857;SDS011;29507;51.284;5.758;2022-12-20T06:50:37;3.65;;;1.40;;
43857;SDS011;29507;51.284;5.758;2022-12-20T06:53:03;2.50;;;1.10;;
43857;SDS011;29507;51.284;5.758;2022-12-20T06:55:29;3.40;;;1.13;;
43857;SDS011;29507;51.284;5.758;2022-12-20T06:57:55;5.38;;;1.30;;
43857;SDS011;29507;51.284;5.758;2022-12-20T07:00:21;3.63;;;1.17;;
43857;SDS011;29507;51.284;5.758;2022-12-20T07:02:47;4.53;;;1.08;;
43857;SDS011;29507;51.284;5.758;2022-12-20T07:05:13;3.50;;;0.90;;
43857;SDS011;29507;51.284;5.758;2022-12-20T07:07:38;3.15;;;1.20;;
43857;SDS011;29507;51.284;5.758;2022-12-20T07:10:04;3.63;;;1.10;;
43857;SDS011;29507;51.284;5.758;2022-12-20T07:12:30;1.98;;;0.93;;
43857;SDS011;29507;51.284;5.758;2022-12-20T07:14:57;2.88;;;0.98;;
43857;SDS011;29507;51.284;5.758;2022-12-20T07:17:23;11.68;;;1.45;;
43857;SDS011;29507;51.284;5.758;2022-12-20T07:19:49;5.18;;;1.40;;
43857;SDS011;29507;51.284;5.758;2022-12-20T07:22:15;2.05;;;0.75;;
43857;SDS011;29507;51.284;5.758;2022-12-20T07:24:41;2.55;;;0.93;;
43857;SDS011;29507;51.284;5.758;2022-12-20T07:27:06;2.80;;;1.10;;
43857;SDS011;29507;51.284;5.758;2022-12-20T07:29:34;1.83;;;0.90;;
43857;SDS011;29507;51.284;5.758;2022-12-20T07:32:00;2.60;;;1.00;;
43857;SDS011;29507;51.284;5.758;2022-12-20T07:34:26;3.10;;;1.10;;
43857;SDS011;29507;51.284;5.758;2022-12-20T07:36:52;3.17;;;0.88;;
43857;SDS011;29507;51.284;5.758;2022-12-20T07:39:17;3.05;;;1.00;;
43857;SDS011;29507;51.284;5.758;2022-12-20T07:41:43;4.07;;;1.00;;
43857;SDS011;29507;51.284;5.758;2022-12-20T07:44:09;4.75;;;1.17;;
43857;SDS011;29507;51.284;5.758;2022-12-20T07:46:35;3.50;;;1.10;;
43857;SDS011;29507;51.284;5.758;2022-12-20T07:49:00;3.22;;;0.93;;
43857;SDS011;29507;51.284;5.758;2022-12-20T07:51:27;2.05;;;1.00;;
43857;SDS011;29507;51.284;5.758;2022-12-20T07:54:01;4.03;;;1.25;;
43857;SDS011;29507;51.284;5.758;2022-12-20T07:56:37;2.47;;;0.90;;
43857;SDS011;29507;51.284;5.758;2022-12-20T07:59:07;1.85;;;0.70;;
43857;SDS011;29507;51.284;5.758;2022-12-20T08:01:43;2.30;;;1.25;;
43857;SDS011;29507;51.284;5.758;2022-12-20T08:04:12;2.15;;;0.82;;
43857;SDS011;29507;51.284;5.758;2022-12-20T08:06:40;3.25;;;1.50;;
43857;SDS011;29507;51.284;5.758;2022-12-20T08:09:06;4.03;;;1.17;;
43857;SDS011;29507;51.284;5.758;2022-12-20T08:11:36;3.75;;;1.10;;
43857;SDS011;29507;51.284;5.758;2022-12-20T08:14:04;1.98;;;1.13;;
43857;SDS011;29507;51.284;5.758;2022-12-20T08:16:32;1.70;;;0.70;;
43857;SDS011;29507;51.284;5.758;2022-12-20T08:18:58;2.88;;;0.80;;
43857;SDS011;29507;51.284;5.758;2022-12-20T08:21:23;1.90;;;0.75;;
43857;SDS011;29507;51.284;5.758;2022-12-20T08:23:49;2.97;;;0.90;;
43857;SDS011;29507;51.284;5.758;2022-12-20T08:26:15;2.15;;;0.88;;
43857;SDS011;29507;51.284;5.758;2022-12-20T08:28:41;2.72;;;0.75;;
43857;SDS011;29507;51.284;5.758;2022-12-20T08:31:08;1.73;;;0.73;;
43857;SDS011;29507;51.284;5.758;2022-12-20T08:33:34;2.60;;;0.88;;
43857;SDS011;29507;51.284;5.758;2022-12-20T08:36:02;4.82;;;0.98;;
43857;SDS011;29507;51.284;5.758;2022-12-20T08:38:30;2.67;;;1.15;;
43857;SDS011;29507;51.284;5.758;2022-12-20T08:41:11;2.45;;;0.80;;
43857;SDS011;29507;51.284;5.758;2022-12-20T08:43:38;2.38;;;0.88;;
43857;SDS011;29507;51.284;5.758;2022-12-20T08:46:06;5.35;;;1.15;;
43857;SDS011;29507;51.284;5.758;2022-12-20T08:48:32;2.40;;;0.95;;
43857;SDS011;29507;51.284;5.758;2022-12-20T08:50:59;5.38;;;1.30;;
43857;SDS011;29507;51.284;5.758;2022-12-20T08:53:29;3.20;;;1.05;;
43857;SDS011;29507;51.284;5.758;2022-12-20T08:56:14;2.50;;;1.00;;
43857;SDS011;29507;51.284;5.758;2022-12-20T08:58:42;3.70;;;1.08;;
43857;SDS011;29507;51.284;5.758;2022-12-20T09:01:10;2.15;;;0.95;;
43857;SDS011;29507;51.284;5.758;2022-12-20T09:03:37;2.65;;;0.95;;
43857;SDS011;29507;51.284;5.758;2022-12-20T09:06:05;2.17;;;0.75;;
43857;SDS011;29507;51.284;5.758;2022-12-20T09:08:36;3.58;;;1.33;;
43857;SDS011;29507;51.284;5.758;2022-12-20T09:11:04;4.45;;;1.33;;
43857;SDS011;29507;51.284;5.758;2022-12-20T09:13:40;3.80;;;0.82;;
43857;SDS011;29507;51.284;5.758;2022-12-20T09:16:08;3.17;;;1.10;;
43857;SDS011;29507;51.284;5.758;2022-12-20T09:18:34;3.80;;;1.05;;
43857;SDS011;29507;51.284;5.758;2022-12-20T09:21:01;3.60;;;1.17;;
43857;SDS011;29507;51.284;5.758;2022-12-20T09:23:29;4.05;;;1.15;;
43857;SDS011;29507;51.284;5.758;2022-12-20T09:26:00;2.38;;;0.80;;
43857;SDS011;29507;51.284;5.758;2022-12-20T09:28:28;2.83;;;0.93;;
43857;SDS011;29507;51.284;5.758;2022-12-20T09:30:56;3.13;;;0.80;;
43857;SDS011;29507;51.284;5.758;2022-12-20T09:33:23;3.95;;;1.20;;
43857;SDS011;29507;51.284;5.758;2022-12-20T09:35:49;4.13;;;1.05;;
43857;SDS011;29507;51.284;5.758;2022-12-20T09:38:14;2.72;;;0.93;;
43857;SDS011;29507;51.284;5.758;2022-12-20T09:40:43;3.78;;;1.33;;
43857;SDS011;29507;51.284;5.758;2022-12-20T09:43:13;2.65;;;1.10;;
43857;SDS011;29507;51.284;5.758;2022-12-20T09:45:40;3.65;;;1.55;;
43857;SDS011;29507;51.284;5.758;2022-12-20T09:48:16;3.65;;;1.20;;
43857;SDS011;29507;51.284;5.758;2022-12-20T09:56:19;1.67;;;0.70;;
43857;SDS011;29507;51.284;5.758;2022-12-20T09:58:59;1.85;;;0.85;;
43857;SDS011;29507;51.284;5.758;2022-12-20T10:01:26;5.70;;;1.10;;
43857;SDS011;29507;51.284;5.758;2022-12-20T10:03:55;1.75;;;0.82;;
43857;SDS011;29507;51.284;5.758;2022-12-20T10:09:25;4.68;;;0.95;;
43857;SDS011;29507;51.284;5.758;2022-12-20T10:12:14;2.67;;;1.13;;
43857;SDS011;29507;51.284;5.758;2022-12-20T10:21:09;2.45;;;0.88;;
43857;SDS011;29507;51.284;5.758;2022-12-20T10:24:29;2.72;;;1.20;;
43857;SDS011;29507;51.284;5.758;2022-12-20T10:27:15;6.25;;;1.95;;
43857;SDS011;29507;51.284;5.758;2022-12-20T10:29:42;3.78;;;1.13;;
43857;SDS011;29507;51.284;5.758;2022-12-20T10:32:11;3.55;;;1.00;;
43857;SDS011;29507;51.284;5.758;2022-12-20T10:34:39;6.70;;;1.20;;
43857;SDS011;29507;51.284;5.758;2022-12-20T10:37:26;1.65;;;0.70;;
43857;SDS011;29507;51.284;5.758;2022-12-20T10:39:52;2.60;;;1.10;;
43857;SDS011;29507;51.284;5.758;2022-12-20T10:42:39;3.75;;;1.33;;
43857;SDS011;29507;51.284;5.758;2022-12-20T10:47:58;3.97;;;1.35;;
43857;SDS011;29507;51.284;5.758;2022-12-20T10:50:25;3.53;;;1.25;;
43857;SDS011;29507;51.284;5.758;2022-12-20T10:55:48;6.55;;;1.15;;
43857;SDS011;29507;51.284;5.758;2022-12-20T11:00:52;2.65;;;1.02;;
43857;SDS011;29507;51.284;5.758;2022-12-20T11:03:47;5.20;;;1.58;;
43857;SDS011;29507;51.284;5.758;2022-12-20T11:06:21;4.78;;;1.00;;
43857;SDS011;29507;51.284;5.758;2022-12-20T11:08:52;2.78;;;0.80;;
43857;SDS011;29507;51.284;5.758;2022-12-20T11:11:19;4.78;;;0.95;;
43857;SDS011;29507;51.284;5.758;2022-12-20T11:13:48;3.60;;;0.90;;
43857;SDS011;29507;51.284;5.758;2022-12-20T11:16:22;5.03;;;1.08;;
43857;SDS011;29507;51.284;5.758;2022-12-20T11:27:34;5.53;;;1.23;;
43857;SDS011;29507;51.284;5.758;2022-12-20T11:30:18;3.95;;;1.00;;
43857;SDS011;29507;51.284;5.758;2022-12-20T11:41:49;3.03;;;1.23;;
43857;SDS011;29507;51.284;5.758;2022-12-20T11:50:28;1.73;;;0.90;;
43857;SDS011;29507;51.284;5.758;2022-12-20T11:53:26;2.30;;;1.00;;
43857;SDS011;29507;51.284;5.758;2022-12-20T11:55:57;8.07;;;1.33;;
43857;SDS011;29507;51.284;5.758;2022-12-20T11:58:41;3.20;;;1.13;;
43857;SDS011;29507;51.284;5.758;2022-12-20T12:01:27;5.07;;;1.67;;
43857;SDS011;29507;51.284;5.758;2022-12-20T12:04:30;3.72;;;1.42;;
43857;SDS011;29507;51.284;5.758;2022-12-20T12:07:01;2.90;;;1.27;;
43857;SDS011;29507;51.284;5.758;2022-12-20T12:23:11;2.90;;;1.40;;
43857;SDS011;29507;51.284;5.758;2022-12-20T12:25:40;3.53;;;1.38;;
43857;SDS011;29507;51.284;5.758;2022-12-20T12:28:08;4.93;;;1.25;;
43857;SDS011;29507;51.284;5.758;2022-12-20T12:30:40;2.60;;;1.25;;
43857;SDS011;29507;51.284;5.758;2022-12-20T12:33:15;3.78;;;1.20;;
43857;SDS011;29507;51.284;5.758;2022-12-20T12:41:00;7.27;;;2.07;;
43857;SDS011;29507;51.284;5.758;2022-12-20T12:43:39;2.50;;;1.30;;
43857;SDS011;29507;51.284;5.758;2022-12-20T12:48:57;6.85;;;1.98;;
43857;SDS011;29507;51.284;5.758;2022-12-20T12:51:42;3.90;;;1.55;;
43857;SDS011;29507;51.284;5.758;2022-12-20T12:56:47;4.45;;;1.67;;
43857;SDS011;29507;51.284;5.758;2022-12-20T12:59:19;2.75;;;1.42;;
43857;SDS011;29507;51.284;5.758;2022-12-20T13:01:49;5.70;;;1.77;;
43857;SDS011;29507;51.284;5.758;2022-12-20T13:06:54;3.38;;;1.90;;
43857;SDS011;29507;51.284;5.758;2022-12-20T13:11:52;4.47;;;1.88;;
43857;SDS011;29507;51.284;5.758;2022-12-20T13:16:48;2.97;;;1.40;;
43857;SDS011;29507;51.284;5.758;2022-12-20T13:21:56;4.25;;;1.60;;
43857;SDS011;29507;51.284;5.758;2022-12-20T13:32:52;6.35;;;2.20;;
43857;SDS011;29507;51.284;5.758;2022-12-20T13:37:58;3.65;;;1.48;;
43857;SDS011;29507;51.284;5.758;2022-12-20T13:43:01;7.13;;;1.90;;
43857;SDS011;29507;51.284;5.758;2022-12-20T13:45:34;5.13;;;1.80;;
43857;SDS011;29507;51.284;5.758;2022-12-20T13:48:03;7.38;;;1.88;;
43857;SDS011;29507;51.284;5.758;2022-12-20T13:53:04;4.68;;;1.55;;
43857;SDS011;29507;51.284;5.758;2022-12-20T13:55:37;4.35;;;2.00;;
43857;SDS011;29507;51.284;5.758;2022-12-20T13:58:12;7.47;;;2.25;;
43857;SDS011;29507;51.284;5.758;2022-12-20T14:00:41;5.35;;;2.08;;
43857;SDS011;29507;51.284;5.758;2022-12-20T14:03:24;5.72;;;1.95;;
43857;SDS011;29507;51.284;5.758;2022-12-20T14:06:01;4.95;;;2.15;;
43857;SDS011;29507;51.284;5.758;2022-12-20T14:08:33;4.55;;;1.73;;
43857;SDS011;29507;51.284;5.758;2022-12-20T14:13:31;4.13;;;1.63;;
43857;SDS011;29507;51.284;5.758;2022-12-20T14:15:57;4.40;;;1.83;;
43857;SDS011;29507;51.284;5.758;2022-12-20T14:18:34;4.75;;;2.00;;
43857;SDS011;29507;51.284;5.758;2022-12-20T14:21:01;6.47;;;2.08;;
43857;SDS011;29507;51.284;5.758;2022-12-20T14:23:39;6.38;;;1.90;;
43857;SDS011;29507;51.284;5.758;2022-12-20T14:26:09;4.72;;;2.13;;
43857;SDS011;29507;51.284;5.758;2022-12-20T14:28:41;6.10;;;2.08;;
43857;SDS011;29507;51.284;5.758;2022-12-20T14:31:23;5.07;;;1.88;;
43857;SDS011;29507;51.284;5.758;2022-12-20T14:36:35;5.05;;;1.90;;
43857;SDS011;29507;51.284;5.758;2022-12-20T14:39:25;4.22;;;2.00;;
43857;SDS011;29507;51.284;5.758;2022-12-20T14:42:01;5.40;;;2.22;;
43857;SDS011;29507;51.284;5.758;2022-12-20T14:44:37;4.75;;;2.72;;
43857;SDS011;29507;51.284;5.758;2022-12-20T14:47:10;4.55;;;2.28;;
43857;SDS011;29507;51.284;5.758;2022-12-20T14:49:43;6.78;;;2.42;;
43857;SDS011;29507;51.284;5.758;2022-12-20T15:05:53;3.97;;;2.20;;
43857;SDS011;29507;51.284;5.758;2022-12-20T15:08:18;6.57;;;2.17;;
43857;SDS011;29507;51.284;5.758;2022-12-20T15:11:00;11.00;;;2.75;;
43857;SDS011;29507;51.284;5.758;2022-12-20T15:13:42;6.13;;;2.13;;
43857;SDS011;29507;51.284;5.758;2022-12-20T15:18:57;5.30;;;2.38;;
43857;SDS011;29507;51.284;5.758;2022-12-20T15:21:36;9.18;;;2.65;;
43857;SDS011;29507;51.284;5.758;2022-12-20T15:24:11;5.78;;;1.92;;
43857;SDS011;29507;51.284;5.758;2022-12-20T15:26:38;7.20;;;2.38;;
43857;SDS011;29507;51.284;5.758;2022-12-20T15:29:04;5.45;;;2.17;;
43857;SDS011;29507;51.284;5.758;2022-12-20T15:31:32;7.50;;;2.80;;
43857;SDS011;29507;51.284;5.758;2022-12-20T15:34:02;5.53;;;2.15;;
43857;SDS011;29507;51.284;5.758;2022-12-20T15:36:29;6.70;;;2.30;;
43857;SDS011;29507;51.284;5.758;2022-12-20T15:38:55;4.50;;;2.30;;
43857;SDS011;29507;51.284;5.758;2022-12-20T15:41:22;5.05;;;2.13;;
43857;SDS011;29507;51.284;5.758;2022-12-20T15:43:59;7.85;;;2.72;;
43857;SDS011;29507;51.284;5.758;2022-12-20T15:46:29;8.10;;;2.70;;
43857;SDS011;29507;51.284;5.758;2022-12-20T15:48:55;6.95;;;2.65;;
43857;SDS011;29507;51.284;5.758;2022-12-20T15:51:29;5.72;;;2.30;;
43857;SDS011;29507;51.284;5.758;2022-12-20T15:53:56;8.68;;;3.25;;
43857;SDS011;29507;51.284;5.758;2022-12-20T15:56:24;6.70;;;2.83;;
43857;SDS011;29507;51.284;5.758;2022-12-20T15:58:51;4.80;;;2.38;;
43857;SDS011;29507;51.284;5.758;2022-12-20T16:01:24;5.50;;;2.72;;
43857;SDS011;29507;51.284;5.758;2022-12-20T16:03:52;6.22;;;2.22;;
43857;SDS011;29507;51.284;5.758;2022-12-20T16:06:18;8.57;;;3.40;;
43857;SDS011;29507;51.284;5.758;2022-12-20T16:08:43;4.82;;;2.50;;
43857;SDS011;29507;51.284;5.758;2022-12-20T16:11:20;5.90;;;2.55;;
43857;SDS011;29507;51.284;5.758;2022-12-20T16:13:51;6.95;;;2.63;;
43857;SDS011;29507;51.284;5.758;2022-12-20T16:16:27;4.32;;;2.40;;
43857;SDS011;29507;51.284;5.758;2022-12-20T16:18:55;5.70;;;2.95;;
43857;SDS011;29507;51.284;5.758;2022-12-20T16:21:23;7.32;;;2.70;;
43857;SDS011;29507;51.284;5.758;2022-12-20T16:23:51;6.28;;;2.97;;
43857;SDS011;29507;51.284;5.758;2022-12-20T16:26:18;4.97;;;2.35;;
43857;SDS011;29507;51.284;5.758;2022-12-20T16:28:48;7.20;;;2.67;;
43857;SDS011;29507;51.284;5.758;2022-12-20T16:33:47;6.70;;;2.97;;
43857;SDS011;29507;51.284;5.758;2022-12-20T16:36:13;6.38;;;2.88;;
43857;SDS011;29507;51.284;5.758;2022-12-20T16:38:39;7.75;;;2.65;;
43857;SDS011;29507;51.284;5.758;2022-12-20T16:41:10;5.60;;;2.80;;
43857;SDS011;29507;51.284;5.758;2022-12-20T16:43:41;7.28;;;3.35;;
43857;SDS011;29507;51.284;5.758;2022-12-20T16:46:17;9.98;;;3.25;;
43857;SDS011;29507;51.284;5.758;2022-12-20T16:48:50;8.50;;;3.17;;
43857;SDS011;29507;51.284;5.758;2022-12-20T16:51:33;6.65;;;2.72;;
43857;SDS011;29507;51.284;5.758;2022-12-20T16:54:18;5.68;;;2.58;;
43857;SDS011;29507;51.284;5.758;2022-12-20T16:56:46;6.38;;;2.90;;
43857;SDS011;29507;51.284;5.758;2022-12-20T16:59:15;5.93;;;2.83;;
43857;SDS011;29507;51.284;5.758;2022-12-20T17:01:40;5.38;;;2.90;;
43857;SDS011;29507;51.284;5.758;2022-12-20T17:04:08;5.13;;;2.65;;
43857;SDS011;29507;51.284;5.758;2022-12-20T17:06:38;6.93;;;2.55;;
43857;SDS011;29507;51.284;5.758;2022-12-20T17:09:03;5.53;;;2.95;;
43857;SDS011;29507;51.284;5.758;2022-12-20T17:11:30;4.97;;;2.50;;
43857;SDS011;29507;51.284;5.758;2022-12-20T17:13:56;9.02;;;2.47;;
43857;SDS011;29507;51.284;5.758;2022-12-20T17:16:23;10.00;;;3.53;;
43857;SDS011;29507;51.284;5.758;2022-12-20T17:18:51;7.22;;;3.28;;
43857;SDS011;29507;51.284;5.758;2022-12-20T17:23:45;5.07;;;2.63;;
43857;SDS011;29507;51.284;5.758;2022-12-20T17:26:13;6.03;;;3.03;;